sensor_id;sensor_type;location;lat;lon;timestamp;P1;durP1;ratioP1;P2;durP2;ratioP2
76593;SDS011;65482;50.240;14.302;2023-04-25T00:00:45;5.25;;;3.22;;
76593;SDS011;65482;50.240;14.302;2023-04-25T01:24:32;5.38;;;3.20;;
76593;SDS011;65482;50.240;14.302;2023-04-25T01:27:02;4.75;;;3.20;;
76593;SDS011;65482;50.240;14.302;2023-04-25T02:24:11;5.65;;;4.20;;
76593;SDS011;65482;50.240;14.302;2023-04-25T05:38:01;8.63;;;5.72;;
76593;SDS011;65482;50.240;14.302;2023-04-25T05:40:34;7.60;;;5.38;;
76593;SDS011;65482;50.240;14.302;2023-04-25T05:43:27;7.47;;;5.20;;
76593;SDS011;65482;50.240;14.302;2023-04-25T05:48:47;8.07;;;5.53;;
76593;SDS011;65482;50.240;14.302;2023-04-25T05:51:51;8.00;;;5.05;;
76593;SDS011;65482;50.240;14.302;2023-04-25T05:58:04;6.35;;;5.10;;
76593;SDS011;65482;50.240;14.302;2023-04-25T06:54:23;6.82;;;4.88;;
76593;SDS011;65482;50.240;14.302;2023-04-25T06:57:09;8.10;;;5.40;;
76593;SDS011;65482;50.240;14.302;2023-04-25T07:00:12;7.32;;;4.38;;
76593;SDS011;65482;50.240;14.302;2023-04-25T07:11:05;9.00;;;6.10;;
76593;SDS011;65482;50.240;14.302;2023-04-25T07:29:13;7.25;;;5.10;;
76593;SDS011;65482;50.240;14.302;2023-04-25T07:32:38;6.68;;;4.95;;
76593;SDS011;65482;50.240;14.302;2023-04-25T07:36:44;11.90;;;5.47;;
76593;SDS011;65482;50.240;14.302;2023-04-25T08:51:02;5.63;;;4.18;;
76593;SDS011;65482;50.240;14.302;2023-04-25T08:54:20;5.78;;;3.90;;
76593;SDS011;65482;50.240;14.302;2023-04-25T09:00:02;5.78;;;3.40;;
76593;SDS011;65482;50.240;14.302;2023-04-25T09:07:50;6.03;;;3.63;;
76593;SDS011;65482;50.240;14.302;2023-04-25T09:40:38;8.25;;;5.35;;
76593;SDS011;65482;50.240;14.302;2023-04-25T09:44:41;11.05;;;5.60;;
76593;SDS011;65482;50.240;14.302;2023-04-25T09:47:14;7.07;;;5.28;;
76593;SDS011;65482;50.240;14.302;2023-04-25T09:53:05;9.32;;;5.63;;
76593;SDS011;65482;50.240;14.302;2023-04-25T09:56:50;9.50;;;5.57;;
76593;SDS011;65482;50.240;14.302;2023-04-25T10:03:39;9.85;;;5.97;;
76593;SDS011;65482;50.240;14.302;2023-04-25T10:06:26;13.48;;;6.60;;
76593;SDS011;65482;50.240;14.302;2023-04-25T10:09:15;9.32;;;6.10;;
76593;SDS011;65482;50.240;14.302;2023-04-25T10:11:48;9.00;;;6.10;;
76593;SDS011;65482;50.240;14.302;2023-04-25T10:25:47;7.72;;;4.78;;
76593;SDS011;65482;50.240;14.302;2023-04-25T10:29:05;5.95;;;4.45;;
76593;SDS011;65482;50.240;14.302;2023-04-25T10:31:59;6.38;;;4.50;;
76593;SDS011;65482;50.240;14.302;2023-04-25T10:35:16;7.13;;;4.60;;
76593;SDS011;65482;50.240;14.302;2023-04-25T10:38:12;7.63;;;4.78;;
76593;SDS011;65482;50.240;14.302;2023-04-25T10:41:10;7.13;;;4.70;;
76593;SDS011;65482;50.240;14.302;2023-04-25T10:44:24;7.45;;;4.63;;
76593;SDS011;65482;50.240;14.302;2023-04-25T10:47:44;7.25;;;5.25;;
76593;SDS011;65482;50.240;14.302;2023-04-25T12:29:34;9.00;;;2.97;;
76593;SDS011;65482;50.240;14.302;2023-04-25T12:32:10;4.55;;;2.60;;
76593;SDS011;65482;50.240;14.302;2023-04-25T12:34:42;4.50;;;2.70;;
76593;SDS011;65482;50.240;14.302;2023-04-25T12:37:10;3.63;;;2.40;;
76593;SDS011;65482;50.240;14.302;2023-04-25T12:39:39;4.40;;;2.22;;
76593;SDS011;65482;50.240;14.302;2023-04-25T12:42:06;4.85;;;2.70;;
76593;SDS011;65482;50.240;14.302;2023-04-25T12:44:38;6.65;;;2.72;;
76593;SDS011;65482;50.240;14.302;2023-04-25T12:47:20;4.68;;;2.33;;
76593;SDS011;65482;50.240;14.302;2023-04-25T13:00:50;5.50;;;2.70;;
76593;SDS011;65482;50.240;14.302;2023-04-25T13:07:50;5.78;;;2.88;;
76593;SDS011;65482;50.240;14.302;2023-04-25T13:57:14;2.35;;;2.13;;
76593;SDS011;65482;50.240;14.302;2023-04-25T14:04:37;2.92;;;1.98;;
76593;SDS011;65482;50.240;14.302;2023-04-25T14:07:26;3.22;;;2.20;;
76593;SDS011;65482;50.240;14.302;2023-04-25T14:13:54;4.13;;;2.20;;
76593;SDS011;65482;50.240;14.302;2023-04-25T14:16:28;6.17;;;2.60;;
76593;SDS011;65482;50.240;14.302;2023-04-25T14:22:40;2.83;;;2.15;;
76593;SDS011;65482;50.240;14.302;2023-04-25T14:25:42;2.55;;;2.35;;
76593;SDS011;65482;50.240;14.302;2023-04-25T14:28:08;4.35;;;2.65;;
76593;SDS011;65482;50.240;14.302;2023-04-25T14:30:35;3.63;;;3.03;;
76593;SDS011;65482;50.240;14.302;2023-04-25T14:33:16;5.97;;;2.90;;
76593;SDS011;65482;50.240;14.302;2023-04-25T14:35:42;3.55;;;2.67;;
76593;SDS011;65482;50.240;14.302;2023-04-25T14:38:08;4.25;;;2.90;;
76593;SDS011;65482;50.240;14.302;2023-04-25T14:40:34;7.10;;;3.20;;
76593;SDS011;65482;50.240;14.302;2023-04-25T14:42:59;4.97;;;3.20;;
76593;SDS011;65482;50.240;14.302;2023-04-25T14:45:25;5.22;;;2.90;;
76593;SDS011;65482;50.240;14.302;2023-04-25T14:47:50;5.00;;;3.47;;
76593;SDS011;65482;50.240;14.302;2023-04-25T14:50:16;4.13;;;2.95;;
76593;SDS011;65482;50.240;14.302;2023-04-25T14:52:42;3.78;;;3.30;;
76593;SDS011;65482;50.240;14.302;2023-04-25T14:55:09;4.45;;;3.45;;
76593;SDS011;65482;50.240;14.302;2023-04-25T14:57:34;5.78;;;3.55;;
76593;SDS011;65482;50.240;14.302;2023-04-25T15:00:01;5.78;;;3.80;;
76593;SDS011;65482;50.240;14.302;2023-04-25T15:02:27;6.40;;;3.72;;
76593;SDS011;65482;50.240;14.302;2023-04-25T15:04:54;6.88;;;4.00;;
76593;SDS011;65482;50.240;14.302;2023-04-25T15:07:20;4.55;;;3.72;;
76593;SDS011;65482;50.240;14.302;2023-04-25T15:09:47;5.88;;;4.00;;
76593;SDS011;65482;50.240;14.302;2023-04-25T15:12:13;5.25;;;3.80;;
76593;SDS011;65482;50.240;14.302;2023-04-25T15:14:39;5.80;;;3.90;;
76593;SDS011;65482;50.240;14.302;2023-04-25T15:17:05;5.55;;;4.13;;
76593;SDS011;65482;50.240;14.302;2023-04-25T15:19:32;6.78;;;4.43;;
76593;SDS011;65482;50.240;14.302;2023-04-25T15:21:57;7.03;;;4.50;;
76593;SDS011;65482;50.240;14.302;2023-04-25T15:24:26;7.45;;;4.55;;
76593;SDS011;65482;50.240;14.302;2023-04-25T15:26:52;7.20;;;5.10;;
76593;SDS011;65482;50.240;14.302;2023-04-25T15:29:18;7.95;;;5.50;;
76593;SDS011;65482;50.240;14.302;2023-04-25T15:31:44;8.02;;;5.40;;
76593;SDS011;65482;50.240;14.302;2023-04-25T15:34:10;6.82;;;5.10;;
76593;SDS011;65482;50.240;14.302;2023-04-25T15:36:36;7.43;;;4.60;;
76593;SDS011;65482;50.240;14.302;2023-04-25T15:39:03;6.60;;;4.65;;
76593;SDS011;65482;50.240;14.302;2023-04-25T15:41:29;7.38;;;5.55;;
76593;SDS011;65482;50.240;14.302;2023-04-25T15:43:55;8.13;;;5.15;;
76593;SDS011;65482;50.240;14.302;2023-04-25T15:46:21;7.82;;;4.60;;
76593;SDS011;65482;50.240;14.302;2023-04-25T15:48:48;9.93;;;5.00;;
76593;SDS011;65482;50.240;14.302;2023-04-25T15:51:13;7.28;;;4.18;;
76593;SDS011;65482;50.240;14.302;2023-04-25T15:53:39;5.88;;;3.85;;
76593;SDS011;65482;50.240;14.302;2023-04-25T15:56:06;5.80;;;3.60;;
76593;SDS011;65482;50.240;14.302;2023-04-25T15:58:32;6.43;;;3.53;;
76593;SDS011;65482;50.240;14.302;2023-04-25T16:00:58;7.78;;;3.20;;
76593;SDS011;65482;50.240;14.302;2023-04-25T16:03:26;5.68;;;3.00;;
76593;SDS011;65482;50.240;14.302;2023-04-25T16:05:52;5.07;;;3.00;;
76593;SDS011;65482;50.240;14.302;2023-04-25T16:08:18;5.03;;;2.97;;
76593;SDS011;65482;50.240;14.302;2023-04-25T16:10:44;9.05;;;3.90;;
76593;SDS011;65482;50.240;14.302;2023-04-25T16:13:10;8.15;;;4.05;;
76593;SDS011;65482;50.240;14.302;2023-04-25T16:15:36;7.00;;;3.45;;
76593;SDS011;65482;50.240;14.302;2023-04-25T16:18:02;6.28;;;3.13;;
76593;SDS011;65482;50.240;14.302;2023-04-25T16:20:28;8.02;;;3.63;;
76593;SDS011;65482;50.240;14.302;2023-04-25T16:22:53;9.98;;;4.50;;
76593;SDS011;65482;50.240;14.302;2023-04-25T16:25:19;7.03;;;3.78;;
76593;SDS011;65482;50.240;14.302;2023-04-25T16:27:46;4.97;;;3.15;;
76593;SDS011;65482;50.240;14.302;2023-04-25T16:30:12;7.72;;;3.55;;
76593;SDS011;65482;50.240;14.302;2023-04-25T16:32:38;6.50;;;3.22;;
76593;SDS011;65482;50.240;14.302;2023-04-25T16:35:04;5.55;;;3.20;;
76593;SDS011;65482;50.240;14.302;2023-04-25T16:37:31;6.75;;;3.70;;
76593;SDS011;65482;50.240;14.302;2023-04-25T16:40:01;5.47;;;2.95;;
76593;SDS011;65482;50.240;14.302;2023-04-25T16:42:35;8.35;;;3.17;;
76593;SDS011;65482;50.240;14.302;2023-04-25T16:45:07;6.68;;;3.08;;
76593;SDS011;65482;50.240;14.302;2023-04-25T16:47:53;9.70;;;3.67;;
76593;SDS011;65482;50.240;14.302;2023-04-25T16:50:23;5.60;;;3.28;;
76593;SDS011;65482;50.240;14.302;2023-04-25T16:52:50;7.97;;;3.38;;
76593;SDS011;65482;50.240;14.302;2023-04-25T16:55:21;8.13;;;3.70;;
76593;SDS011;65482;50.240;14.302;2023-04-25T16:58:00;9.48;;;4.28;;
76593;SDS011;65482;50.240;14.302;2023-04-25T17:00:29;6.00;;;3.72;;
76593;SDS011;65482;50.240;14.302;2023-04-25T17:03:03;6.75;;;4.03;;
76593;SDS011;65482;50.240;14.302;2023-04-25T17:05:29;7.60;;;3.88;;
76593;SDS011;65482;50.240;14.302;2023-04-25T17:07:59;10.57;;;4.63;;
76593;SDS011;65482;50.240;14.302;2023-04-25T17:10:25;8.43;;;4.22;;
76593;SDS011;65482;50.240;14.302;2023-04-25T17:12:52;7.80;;;4.50;;
76593;SDS011;65482;50.240;14.302;2023-04-25T17:15:23;7.07;;;4.60;;
76593;SDS011;65482;50.240;14.302;2023-04-25T17:17:50;6.93;;;4.60;;
76593;SDS011;65482;50.240;14.302;2023-04-25T17:20:22;8.55;;;4.55;;
76593;SDS011;65482;50.240;14.302;2023-04-25T17:22:49;8.73;;;5.03;;
76593;SDS011;65482;50.240;14.302;2023-04-25T17:25:41;9.32;;;5.63;;
76593;SDS011;65482;50.240;14.302;2023-04-25T17:31:09;8.45;;;5.35;;
76593;SDS011;65482;50.240;14.302;2023-04-25T17:33:40;11.60;;;5.40;;
76593;SDS011;65482;50.240;14.302;2023-04-25T17:36:10;11.23;;;6.05;;
76593;SDS011;65482;50.240;14.302;2023-04-25T17:38:44;9.18;;;5.53;;
76593;SDS011;65482;50.240;14.302;2023-04-25T17:41:11;11.57;;;6.10;;
76593;SDS011;65482;50.240;14.302;2023-04-25T17:43:41;11.55;;;5.85;;
76593;SDS011;65482;50.240;14.302;2023-04-25T17:46:07;10.45;;;5.97;;
76593;SDS011;65482;50.240;14.302;2023-04-25T17:48:33;7.88;;;4.88;;
76593;SDS011;65482;50.240;14.302;2023-04-25T17:51:01;12.32;;;5.20;;
76593;SDS011;65482;50.240;14.302;2023-04-25T17:53:43;12.10;;;4.70;;
76593;SDS011;65482;50.240;14.302;2023-04-25T17:56:11;11.82;;;5.65;;
76593;SDS011;65482;50.240;14.302;2023-04-25T17:58:37;9.13;;;4.68;;
76593;SDS011;65482;50.240;14.302;2023-04-25T18:01:07;11.55;;;4.63;;
76593;SDS011;65482;50.240;14.302;2023-04-25T18:03:35;10.50;;;4.47;;
76593;SDS011;65482;50.240;14.302;2023-04-25T18:06:27;12.70;;;4.78;;
76593;SDS011;65482;50.240;14.302;2023-04-25T18:08:55;8.98;;;4.78;;
76593;SDS011;65482;50.240;14.302;2023-04-25T18:11:27;12.30;;;4.47;;
76593;SDS011;65482;50.240;14.302;2023-04-25T18:14:02;7.80;;;3.85;;
76593;SDS011;65482;50.240;14.302;2023-04-25T18:16:43;8.98;;;4.20;;
76593;SDS011;65482;50.240;14.302;2023-04-25T18:19:31;11.20;;;3.88;;
76593;SDS011;65482;50.240;14.302;2023-04-25T18:22:11;7.53;;;4.20;;
76593;SDS011;65482;50.240;14.302;2023-04-25T18:24:55;8.37;;;4.20;;
76593;SDS011;65482;50.240;14.302;2023-04-25T18:27:38;12.25;;;3.90;;
76593;SDS011;65482;50.240;14.302;2023-04-25T18:30:05;11.48;;;4.68;;
76593;SDS011;65482;50.240;14.302;2023-04-25T18:32:36;12.75;;;5.15;;
76593;SDS011;65482;50.240;14.302;2023-04-25T18:35:03;15.20;;;4.93;;
76593;SDS011;65482;50.240;14.302;2023-04-25T18:37:30;13.45;;;5.32;;
76593;SDS011;65482;50.240;14.302;2023-04-25T18:40:02;15.40;;;5.30;;
76593;SDS011;65482;50.240;14.302;2023-04-25T18:42:54;14.90;;;5.57;;
76593;SDS011;65482;50.240;14.302;2023-04-25T18:48:47;16.98;;;6.53;;
76593;SDS011;65482;50.240;14.302;2023-04-25T18:51:40;14.93;;;6.22;;
76593;SDS011;65482;50.240;14.302;2023-04-25T18:54:06;20.02;;;7.45;;
76593;SDS011;65482;50.240;14.302;2023-04-25T18:56:36;20.65;;;6.55;;
76593;SDS011;65482;50.240;14.302;2023-04-25T18:59:02;14.88;;;6.90;;
76593;SDS011;65482;50.240;14.302;2023-04-25T19:01:31;18.00;;;7.75;;
76593;SDS011;65482;50.240;14.302;2023-04-25T19:04:00;18.30;;;7.97;;
76593;SDS011;65482;50.240;14.302;2023-04-25T19:06:33;24.38;;;9.35;;
76593;SDS011;65482;50.240;14.302;2023-04-25T19:08:58;20.25;;;9.63;;
76593;SDS011;65482;50.240;14.302;2023-04-25T19:11:25;20.90;;;10.13;;
76593;SDS011;65482;50.240;14.302;2023-04-25T19:13:51;22.25;;;9.23;;
76593;SDS011;65482;50.240;14.302;2023-04-25T19:16:21;17.48;;;7.93;;
76593;SDS011;65482;50.240;14.302;2023-04-25T19:18:59;15.90;;;6.88;;
76593;SDS011;65482;50.240;14.302;2023-04-25T19:21:59;15.23;;;6.43;;
76593;SDS011;65482;50.240;14.302;2023-04-25T19:24:27;16.13;;;6.45;;
76593;SDS011;65482;50.240;14.302;2023-04-25T19:26:53;19.30;;;6.50;;
76593;SDS011;65482;50.240;14.302;2023-04-25T19:29:28;11.88;;;5.93;;
76593;SDS011;65482;50.240;14.302;2023-04-25T19:31:54;13.77;;;5.93;;
76593;SDS011;65482;50.240;14.302;2023-04-25T19:34:22;12.73;;;5.60;;
76593;SDS011;65482;50.240;14.302;2023-04-25T19:36:48;10.80;;;5.78;;
76593;SDS011;65482;50.240;14.302;2023-04-25T19:39:23;14.05;;;6.93;;
76593;SDS011;65482;50.240;14.302;2023-04-25T19:41:57;19.63;;;9.50;;
76593;SDS011;65482;50.240;14.302;2023-04-25T19:44:38;16.67;;;8.65;;
76593;SDS011;65482;50.240;14.302;2023-04-25T19:47:05;17.50;;;7.45;;
76593;SDS011;65482;50.240;14.302;2023-04-25T19:49:32;13.35;;;6.43;;
76593;SDS011;65482;50.240;14.302;2023-04-25T19:51:59;14.02;;;6.35;;
76593;SDS011;65482;50.240;14.302;2023-04-25T19:54:26;12.30;;;5.32;;
76593;SDS011;65482;50.240;14.302;2023-04-25T19:57:13;12.63;;;5.35;;
76593;SDS011;65482;50.240;14.302;2023-04-25T19:59:40;10.75;;;5.03;;
76593;SDS011;65482;50.240;14.302;2023-04-25T20:02:06;12.73;;;5.40;;
76593;SDS011;65482;50.240;14.302;2023-04-25T20:04:35;12.35;;;5.25;;
76593;SDS011;65482;50.240;14.302;2023-04-25T20:07:00;15.55;;;5.90;;
76593;SDS011;65482;50.240;14.302;2023-04-25T20:09:29;14.20;;;5.93;;
76593;SDS011;65482;50.240;14.302;2023-04-25T20:11:54;12.43;;;5.75;;
76593;SDS011;65482;50.240;14.302;2023-04-25T20:14:21;13.75;;;5.47;;
76593;SDS011;65482;50.240;14.302;2023-04-25T20:16:46;10.60;;;5.07;;
76593;SDS011;65482;50.240;14.302;2023-04-25T20:19:13;17.70;;;5.80;;
76593;SDS011;65482;50.240;14.302;2023-04-25T20:21:44;13.80;;;5.80;;
76593;SDS011;65482;50.240;14.302;2023-04-25T20:24:18;13.68;;;5.60;;
76593;SDS011;65482;50.240;14.302;2023-04-25T20:26:51;15.30;;;5.78;;
76593;SDS011;65482;50.240;14.302;2023-04-25T20:30:15;16.38;;;5.90;;
76593;SDS011;65482;50.240;14.302;2023-04-25T20:33:30;12.75;;;5.80;;
76593;SDS011;65482;50.240;14.302;2023-04-25T20:36:16;14.30;;;5.30;;
76593;SDS011;65482;50.240;14.302;2023-04-25T20:38:43;11.88;;;5.50;;
76593;SDS011;65482;50.240;14.302;2023-04-25T20:41:10;12.70;;;5.30;;
76593;SDS011;65482;50.240;14.302;2023-04-25T20:43:36;10.18;;;5.10;;
76593;SDS011;65482;50.240;14.302;2023-04-25T20:46:04;9.98;;;4.72;;
76593;SDS011;65482;50.240;14.302;2023-04-25T20:48:30;12.18;;;4.88;;
76593;SDS011;65482;50.240;14.302;2023-04-25T20:50:57;13.95;;;5.05;;
76593;SDS011;65482;50.240;14.302;2023-04-25T20:53:24;12.88;;;4.97;;
76593;SDS011;65482;50.240;14.302;2023-04-25T20:55:51;13.45;;;5.07;;
76593;SDS011;65482;50.240;14.302;2023-04-25T20:58:17;12.93;;;6.45;;
76593;SDS011;65482;50.240;14.302;2023-04-25T21:00:43;15.45;;;5.70;;
76593;SDS011;65482;50.240;14.302;2023-04-25T21:03:12;10.77;;;5.20;;
76593;SDS011;65482;50.240;14.302;2023-04-25T21:05:40;11.98;;;5.47;;
76593;SDS011;65482;50.240;14.302;2023-04-25T21:08:06;13.88;;;6.00;;
76593;SDS011;65482;50.240;14.302;2023-04-25T21:10:33;12.43;;;5.93;;
76593;SDS011;65482;50.240;14.302;2023-04-25T21:12:59;12.38;;;5.15;;
76593;SDS011;65482;50.240;14.302;2023-04-25T21:15:26;12.35;;;5.22;;
76593;SDS011;65482;50.240;14.302;2023-04-25T21:17:53;11.30;;;5.68;;
76593;SDS011;65482;50.240;14.302;2023-04-25T21:20:19;11.77;;;5.22;;
76593;SDS011;65482;50.240;14.302;2023-04-25T21:22:46;10.70;;;5.32;;
76593;SDS011;65482;50.240;14.302;2023-04-25T21:25:17;13.85;;;5.53;;
76593;SDS011;65482;50.240;14.302;2023-04-25T21:27:48;19.10;;;6.18;;
76593;SDS011;65482;50.240;14.302;2023-04-25T21:30:16;17.88;;;6.63;;
76593;SDS011;65482;50.240;14.302;2023-04-25T21:32:43;20.60;;;6.78;;
76593;SDS011;65482;50.240;14.302;2023-04-25T21:35:10;17.02;;;6.90;;
76593;SDS011;65482;50.240;14.302;2023-04-25T21:37:37;20.10;;;7.50;;
76593;SDS011;65482;50.240;14.302;2023-04-25T21:40:03;21.90;;;9.13;;
76593;SDS011;65482;50.240;14.302;2023-04-25T21:42:30;20.23;;;8.65;;
76593;SDS011;65482;50.240;14.302;2023-04-25T21:44:56;20.52;;;8.13;;
76593;SDS011;65482;50.240;14.302;2023-04-25T21:47:22;24.05;;;8.55;;
76593;SDS011;65482;50.240;14.302;2023-04-25T21:49:49;18.42;;;7.75;;
76593;SDS011;65482;50.240;14.302;2023-04-25T21:52:15;14.35;;;7.15;;
76593;SDS011;65482;50.240;14.302;2023-04-25T21:54:41;19.05;;;7.55;;
76593;SDS011;65482;50.240;14.302;2023-04-25T21:57:07;19.67;;;7.38;;
76593;SDS011;65482;50.240;14.302;2023-04-25T21:59:33;21.45;;;6.80;;
76593;SDS011;65482;50.240;14.302;2023-04-25T22:02:00;13.75;;;6.45;;
76593;SDS011;65482;50.240;14.302;2023-04-25T22:04:26;14.70;;;6.80;;
76593;SDS011;65482;50.240;14.302;2023-04-25T22:06:51;17.83;;;6.43;;
76593;SDS011;65482;50.240;14.302;2023-04-25T22:09:17;14.65;;;5.85;;
76593;SDS011;65482;50.240;14.302;2023-04-25T22:11:43;10.90;;;5.18;;
76593;SDS011;65482;50.240;14.302;2023-04-25T22:14:09;9.60;;;4.90;;
76593;SDS011;65482;50.240;14.302;2023-04-25T22:16:36;12.10;;;4.95;;
76593;SDS011;65482;50.240;14.302;2023-04-25T22:19:03;15.18;;;5.28;;
76593;SDS011;65482;50.240;14.302;2023-04-25T22:21:29;10.25;;;4.57;;
76593;SDS011;65482;50.240;14.302;2023-04-25T22:23:55;12.07;;;4.20;;
76593;SDS011;65482;50.240;14.302;2023-04-25T22:26:21;13.55;;;4.40;;
76593;SDS011;65482;50.240;14.302;2023-04-25T22:28:50;12.43;;;4.45;;
76593;SDS011;65482;50.240;14.302;2023-04-25T22:31:16;9.98;;;4.72;;
76593;SDS011;65482;50.240;14.302;2023-04-25T22:33:42;11.82;;;4.65;;
76593;SDS011;65482;50.240;14.302;2023-04-25T22:36:11;10.20;;;4.28;;
76593;SDS011;65482;50.240;14.302;2023-04-25T22:38:39;12.35;;;4.20;;
76593;SDS011;65482;50.240;14.302;2023-04-25T22:41:05;11.27;;;4.18;;
76593;SDS011;65482;50.240;14.302;2023-04-25T22:43:33;7.68;;;3.45;;
76593;SDS011;65482;50.240;14.302;2023-04-25T22:45:59;9.77;;;3.80;;
76593;SDS011;65482;50.240;14.302;2023-04-25T22:48:29;9.50;;;3.60;;
76593;SDS011;65482;50.240;14.302;2023-04-25T22:51:01;7.53;;;3.17;;
76593;SDS011;65482;50.240;14.302;2023-04-25T22:53:28;9.25;;;3.35;;
76593;SDS011;65482;50.240;14.302;2023-04-25T22:55:56;8.80;;;4.38;;
76593;SDS011;65482;50.240;14.302;2023-04-25T22:58:22;6.25;;;3.85;;
76593;SDS011;65482;50.240;14.302;2023-04-25T23:00:48;7.90;;;4.70;;
76593;SDS011;65482;50.240;14.302;2023-04-25T23:03:16;10.27;;;4.53;;
76593;SDS011;65482;50.240;14.302;2023-04-25T23:05:43;9.77;;;4.88;;
76593;SDS011;65482;50.240;14.302;2023-04-25T23:08:10;12.43;;;4.75;;
76593;SDS011;65482;50.240;14.302;2023-04-25T23:10:37;11.10;;;4.20;;
76593;SDS011;65482;50.240;14.302;2023-04-25T23:13:03;6.72;;;3.83;;
76593;SDS011;65482;50.240;14.302;2023-04-25T23:15:29;10.25;;;4.00;;
76593;SDS011;65482;50.240;14.302;2023-04-25T23:17:58;11.43;;;4.07;;
76593;SDS011;65482;50.240;14.302;2023-04-25T23:20:25;9.93;;;4.72;;
76593;SDS011;65482;50.240;14.302;2023-04-25T23:22:51;8.48;;;5.30;;
76593;SDS011;65482;50.240;14.302;2023-04-25T23:25:16;9.25;;;4.75;;
76593;SDS011;65482;50.240;14.302;2023-04-25T23:27:43;15.02;;;4.95;;
76593;SDS011;65482;50.240;14.302;2023-04-25T23:30:09;11.80;;;5.18;;
76593;SDS011;65482;50.240;14.302;2023-04-25T23:32:36;10.77;;;4.63;;
76593;SDS011;65482;50.240;14.302;2023-04-25T23:35:02;12.00;;;4.72;;
76593;SDS011;65482;50.240;14.302;2023-04-25T23:37:35;10.15;;;4.38;;
76593;SDS011;65482;50.240;14.302;2023-04-25T23:40:02;14.07;;;4.70;;
76593;SDS011;65482;50.240;14.302;2023-04-25T23:42:34;8.63;;;4.45;;
76593;SDS011;65482;50.240;14.302;2023-04-25T23:45:01;12.93;;;4.43;;
76593;SDS011;65482;50.240;14.302;2023-04-25T23:47:27;11.05;;;4.85;;
76593;SDS011;65482;50.240;14.302;2023-04-25T23:49:52;8.50;;;4.38;;
76593;SDS011;65482;50.240;14.302;2023-04-25T23:52:18;9.27;;;4.60;;
76593;SDS011;65482;50.240;14.302;2023-04-25T23:54:44;15.50;;;4.63;;
76593;SDS011;65482;50.240;14.302;2023-04-25T23:57:10;7.25;;;4.60;;
76593;SDS011;65482;50.240;14.302;2023-04-25T23:59:36;12.10;;;4.32;;
